Time;durP1;ratioP1;P1;durP2;ratioP2;P2;SDS_P1;SDS_P2;PMS_P1;PMS_P2;Temp;Humidity;BMP_temperature;BMP_pressure;BME280_temperature;BME280_humidity;BME280_pressure;Samples;Min_cycle;Max_cycle;Signal;HPM_P1;HPM_P2
2021/10/21 00:00:49;;;;;;;34.35;27.80;;;;;;;11.80;100.00;101793.38;4938155;29;20115;-70
2021/10/21 00:03:36;;;;;;;46.00;32.47;;;;;;;11.70;100.00;101789.06;4937855;28;20478;-70
2021/10/21 00:06:22;;;;;;;41.22;29.90;;;;;;;11.76;100.00;101789.91;4924236;29;20031;-70
2021/10/21 00:09:07;;;;;;;43.13;30.45;;;;;;;11.73;100.00;101789.06;4937250;29;20477;-70
2021/10/21 00:11:54;;;;;;;40.97;30.65;;;;;;;11.59;100.00;101789.09;4923526;29;20119;-70
2021/10/21 00:14:41;;;;;;;39.70;30.45;;;;;;;11.89;100.00;101782.84;4924334;29;20516;-70
2021/10/21 00:17:27;;;;;;;40.78;29.65;;;;;;;11.89;100.00;101777.59;4935874;29;20046;-69
2021/10/21 00:20:13;;;;;;;39.88;29.80;;;;;;;11.97;100.00;101781.06;4937520;29;20042;-70
2021/10/21 00:22:59;;;;;;;37.55;29.80;;;;;;;11.98;100.00;101767.03;4937972;28;20098;-70
2021/10/21 00:25:45;;;;;;;39.90;29.33;;;;;;;11.47;100.00;101776.03;4937746;29;20028;-70
2021/10/21 00:28:31;;;;;;;38.78;28.90;;;;;;;11.51;100.00;101775.13;4923619;29;20027;-70
2021/10/21 00:31:17;;;;;;;40.05;29.90;;;;;;;12.01;100.00;101770.50;4937016;29;20032;-70
2021/10/21 00:34:03;;;;;;;38.13;29.42;;;;;;;11.79;100.00;101768.91;4937731;28;20038;-69
2021/10/21 00:36:48;;;;;;;40.28;30.15;;;;;;;11.81;100.00;101764.50;4937014;29;20098;-69
2021/10/21 00:39:34;;;;;;;42.47;31.60;;;;;;;11.81;100.00;101764.50;4937877;28;20082;-71
2021/10/21 00:42:20;;;;;;;50.92;35.47;;;;;;;11.31;100.00;101765.59;4937811;28;20095;-70
2021/10/21 00:45:07;;;;;;;51.17;36.45;;;;;;;11.10;100.00;101757.78;4937394;29;20449;-69
2021/10/21 00:47:52;;;;;;;48.33;35.20;;;;;;;10.99;100.00;101760.44;4939447;29;20048;-69
2021/10/21 00:50:40;;;;;;;47.33;34.65;;;;;;;11.43;100.00;101758.56;4941003;28;20032;-68
2021/10/21 00:53:29;;;;;;;53.63;36.55;;;;;;;11.51;100.00;101746.25;4941066;28;20028;-70
2021/10/21 00:56:18;;;;;;;47.20;32.85;;;;;;;11.30;100.00;101740.25;4940716;28;20027;-69
2021/10/21 00:59:07;;;;;;;49.03;34.17;;;;;;;11.28;100.00;101741.97;4941110;28;20027;-69
2021/10/21 01:01:52;;;;;;;47.38;33.88;;;;;;;11.64;100.00;101733.97;4940684;29;20336;-70
2021/10/21 01:04:39;;;;;;;57.17;34.80;;;;;;;11.66;100.00;101730.44;4940646;29;20023;-69
2021/10/21 01:07:25;;;;;;;46.50;32.92;;;;;;;11.71;100.00;101726.06;4940123;29;20038;-69
2021/10/21 01:10:11;;;;;;;50.08;34.08;;;;;;;11.63;100.00;101713.84;4939733;29;20381;-69
2021/10/21 01:12:57;;;;;;;49.80;35.38;;;;;;;11.81;100.00;101719.84;4939707;29;20048;-69
2021/10/21 01:15:42;;;;;;;43.38;32.97;;;;;;;11.23;100.00;101707.91;4939285;29;20123;-70
2021/10/21 01:18:28;;;;;;;44.28;33.63;;;;;;;10.95;100.00;101715.88;4940371;28;20344;-69
2021/10/21 01:21:14;;;;;;;46.10;32.40;;;;;;;10.68;100.00;101714.19;4940302;28;20074;-69
2021/10/21 01:24:00;;;;;;;50.90;36.20;;;;;;;10.71;100.00;101711.59;4940079;28;20090;-69
2021/10/21 01:26:48;;;;;;;47.20;33.60;;;;;;;10.64;100.00;101714.22;4939538;29;20102;-69
2021/10/21 01:29:34;;;;;;;46.10;34.70;;;;;;;10.83;100.00;101716.78;4926585;29;20031;-69
2021/10/21 01:32:24;;;;;;;48.15;34.33;;;;;;;10.62;100.00;101719.47;4926822;28;20027;-71
2021/10/21 01:35:10;;;;;;;46.53;33.88;;;;;;;10.34;100.00;101714.25;4940056;29;20361;-69
2021/10/21 01:37:56;;;;;;;48.65;34.90;;;;;;;10.47;100.00;101719.47;4939821;29;20024;-70
2021/10/21 01:40:42;;;;;;;50.22;36.05;;;;;;;10.75;100.00;101717.69;4925388;29;20035;-69
2021/10/21 01:43:28;;;;;;;52.53;37.70;;;;;;;10.83;100.00;101721.16;4939705;29;20028;-69
2021/10/21 01:46:13;;;;;;;53.45;38.92;;;;;;;10.57;100.00;101723.81;4938851;29;20036;-69
2021/10/21 01:48:59;;;;;;;56.90;41.08;;;;;;;10.77;100.00;101718.56;4939801;29;20106;-70
2021/10/21 01:51:48;;;;;;;54.90;40.45;;;;;;;10.68;100.00;101722.06;4940445;28;20118;-70
2021/10/21 01:54:34;;;;;;;55.03;39.72;;;;;;;10.82;100.00;101719.41;4926297;28;20042;-69
2021/10/21 01:57:19;;;;;;;54.80;38.95;;;;;;;10.39;100.00;101718.63;4938891;29;20479;-70
2021/10/21 02:00:08;;;;;;;54.30;39.85;;;;;;;10.53;100.00;101713.38;4938739;29;20437;-70
2021/10/21 02:02:53;;;;;;;52.30;38.55;;;;;;;10.46;100.00;101723.00;4939477;28;20024;-69
2021/10/21 02:05:39;;;;;;;53.45;37.70;;;;;;;10.27;100.00;101721.25;4938969;29;20440;-70
2021/10/21 02:08:26;;;;;;;52.70;37.60;;;;;;;10.35;100.00;101711.63;4939159;28;20038;-69
2021/10/21 02:11:11;;;;;;;53.25;38.22;;;;;;;10.46;100.00;101711.63;4939449;29;20217;-69
2021/10/21 02:13:57;;;;;;;47.35;35.97;;;;;;;10.28;100.00;101711.66;4939463;29;20020;-69
2021/10/21 02:16:43;;;;;;;52.10;36.65;;;;;;;10.28;100.00;101717.75;4938309;29;20046;-69
2021/10/21 02:19:28;;;;;;;52.47;37.90;;;;;;;10.30;100.00;101712.50;4938459;29;20028;-69
2021/10/21 02:22:14;;;;;;;53.22;38.65;;;;;;;10.43;100.00;101714.25;4938966;28;20528;-69
2021/10/21 02:25:00;;;;;;;51.83;37.17;;;;;;;10.25;100.00;101709.91;4938062;29;20114;-70
2021/10/21 02:27:47;;;;;;;50.92;37.40;;;;;;;10.44;100.00;101706.38;4939018;29;20115;-70
2021/10/21 02:30:32;;;;;;;52.47;36.35;;;;;;;10.31;100.00;101703.78;4938727;29;20035;-69
2021/10/21 02:33:18;;;;;;;56.97;38.15;;;;;;;10.50;100.00;101705.50;4938381;29;20043;-69
2021/10/21 02:36:04;;;;;;;54.35;38.35;;;;;;;10.18;100.00;101708.16;4939409;28;20027;-70
2021/10/21 02:38:50;;;;;;;53.45;36.70;;;;;;;10.31;100.00;101704.66;4937815;29;20019;-69
2021/10/21 02:41:35;;;;;;;51.60;36.83;;;;;;;10.14;100.00;101704.66;4939054;29;20090;-70
2021/10/21 02:44:22;;;;;;;50.97;35.65;;;;;;;9.96;100.00;101703.75;4938397;29;20035;-70
2021/10/21 02:47:08;;;;;;;54.17;36.50;;;;;;;9.93;100.00;101698.53;4938233;29;20043;-70
2021/10/21 02:49:54;;;;;;;52.45;36.38;;;;;;;10.18;100.00;101702.03;4938345;29;20027;-70
2021/10/21 02:52:39;;;;;;;53.33;37.00;;;;;;;9.94;100.00;101706.34;4924738;29;20028;-70
2021/10/21 02:55:25;;;;;;;50.70;36.20;;;;;;;10.30;100.00;101700.28;4937878;28;20433;-70
2021/10/21 02:58:11;;;;;;;49.47;35.30;;;;;;;10.26;100.00;101693.31;4938272;29;20035;-69
2021/10/21 03:00:57;;;;;;;54.17;37.33;;;;;;;10.20;100.00;101693.31;4938000;29;20070;-69
2021/10/21 03:03:43;;;;;;;53.13;37.42;;;;;;;10.18;100.00;101688.94;4938457;28;20338;-69
2021/10/21 03:06:28;;;;;;;53.10;36.63;;;;;;;10.22;100.00;101685.44;4937786;29;20130;-69
2021/10/21 03:09:14;;;;;;;49.78;34.75;;;;;;;10.40;100.00;101683.69;4936755;29;20052;-69
2021/10/21 03:12:00;;;;;;;50.95;36.83;;;;;;;10.35;100.00;101674.97;4937992;28;20020;-70
2021/10/21 03:14:46;;;;;;;49.22;36.33;;;;;;;10.27;100.00;101673.22;4937755;29;20043;-68
2021/10/21 03:17:31;;;;;;;52.95;35.60;;;;;;;10.35;100.00;101684.56;4937353;29;20042;-69
2021/10/21 03:20:17;;;;;;;47.47;33.85;;;;;;;10.21;100.00;101675.84;4938240;28;20023;-70
2021/10/21 03:23:03;;;;;;;47.53;33.67;;;;;;;10.30;100.00;101674.09;4939775;28;20043;-69
2021/10/21 03:25:49;;;;;;;49.83;33.97;;;;;;;10.29;100.00;101667.09;4923630;29;20038;-70
2021/10/21 03:28:35;;;;;;;49.45;34.50;;;;;;;10.35;100.00;101671.47;4938167;29;20027;-69
2021/10/21 03:31:21;;;;;;;51.15;34.65;;;;;;;10.39;100.00;101667.97;4937971;29;20310;-70
2021/10/21 03:34:07;;;;;;;48.03;33.25;;;;;;;10.49;100.00;101662.69;4937047;29;20019;-69
2021/10/21 03:36:53;;;;;;;45.20;32.47;;;;;;;10.35;100.00;101656.63;4938877;28;20050;-69
2021/10/21 03:39:39;;;;;;;48.47;30.90;;;;;;;10.00;100.00;101656.63;4937942;28;20035;-69
2021/10/21 03:42:25;;;;;;;44.13;29.42;;;;;;;10.04;100.00;101650.53;4924414;29;20368;-69
2021/10/21 03:45:11;;;;;;;38.50;29.10;;;;;;;10.14;100.00;101648.81;4924314;29;20111;-69
2021/10/21 03:47:57;;;;;;;41.10;29.85;;;;;;;10.23;100.00;101646.16;4937558;29;20083;-69
2021/10/21 03:50:42;;;;;;;37.88;28.73;;;;;;;10.29;100.00;101642.66;4924361;29;20027;-70
2021/10/21 03:53:28;;;;;;;35.13;26.40;;;;;;;10.17;100.00;101635.72;4938439;28;20016;-69
2021/10/21 03:56:14;;;;;;;41.53;28.70;;;;;;;9.84;100.00;101638.28;4937822;28;20036;-69
2021/10/21 03:59:00;;;;;;;41.58;29.77;;;;;;;9.91;100.00;101640.94;4938142;28;20122;-69
2021/10/21 04:01:45;;;;;;;43.30;30.17;;;;;;;10.02;100.00;101630.44;4937581;29;20031;-69
2021/10/21 04:04:31;;;;;;;37.08;27.80;;;;;;;9.88;100.00;101627.84;4937675;29;20032;-69
2021/10/21 04:07:17;;;;;;;42.90;28.15;;;;;;;9.85;100.00;101633.06;4937618;28;20058;-69
2021/10/21 04:10:04;;;;;;;44.47;28.60;;;;;;;10.05;100.00;101626.09;4936658;29;20405;-70
2021/10/21 04:12:49;;;;;;;42.25;27.70;;;;;;;10.03;100.00;101626.94;4937078;29;20345;-70
2021/10/21 04:15:35;;;;;;;35.58;27.77;;;;;;;9.94;100.00;101626.97;4937175;29;20176;-70
2021/10/21 04:18:21;;;;;;;47.50;28.55;;;;;;;9.88;100.00;101626.94;4923835;29;20360;-70
2021/10/21 04:21:07;;;;;;;39.38;28.17;;;;;;;10.18;100.00;101623.47;4937872;29;20047;-69
2021/10/21 04:23:54;;;;;;;41.95;28.60;;;;;;;10.10;100.00;101616.50;4926639;29;20028;-70
2021/10/21 04:26:40;;;;;;;43.78;29.08;;;;;;;9.96;100.00;101631.31;4926635;29;20031;-70
2021/10/21 04:29:26;;;;;;;46.30;30.08;;;;;;;9.98;100.00;101629.56;4941580;28;20054;-69
2021/10/21 04:32:12;;;;;;;48.10;30.63;;;;;;;9.99;100.00;101622.59;4941031;28;20028;-69
2021/10/21 04:34:58;;;;;;;43.97;29.38;;;;;;;10.29;100.00;101625.19;4941354;29;20453;-69
2021/10/21 04:37:44;;;;;;;46.15;29.02;;;;;;;10.05;100.00;101614.78;4941106;29;20366;-68
2021/10/21 04:40:31;;;;;;;44.38;29.00;;;;;;;9.99;100.00;101613.00;4942232;28;20436;-69
2021/10/21 04:43:16;;;;;;;47.17;28.45;;;;;;;10.27;100.00;101608.63;4941264;28;20031;-68
2021/10/21 04:46:03;;;;;;;38.13;27.25;;;;;;;9.82;100.00;101613.88;4940894;28;20027;-68
2021/10/21 04:48:49;;;;;;;46.88;28.77;;;;;;;9.99;100.00;101609.50;4939843;29;20456;-69
2021/10/21 04:51:34;;;;;;;43.22;28.35;;;;;;;10.18;100.00;101609.50;4940658;28;20036;-69
2021/10/21 04:54:20;;;;;;;43.47;27.95;;;;;;;9.83;100.00;101602.53;4926387;29;20457;-71
2021/10/21 04:57:06;;;;;;;47.67;29.80;;;;;;;10.18;100.00;101599.03;4940396;28;20472;-69
2021/10/21 04:59:52;;;;;;;49.88;29.77;;;;;;;10.16;100.00;101599.06;4940656;28;20114;-69
2021/10/21 05:02:38;;;;;;;49.08;29.67;;;;;;;9.80;100.00;101592.94;4940008;29;20071;-69
2021/10/21 05:05:23;;;;;;;49.65;31.85;;;;;;;10.06;100.00;101591.19;4939934;29;20041;-69
2021/10/21 05:08:09;;;;;;;54.58;35.90;;;;;;;10.59;100.00;101592.81;4940651;29;20031;-67
2021/10/21 05:10:55;;;;;;;59.28;40.03;;;;;;;10.90;100.00;101591.81;4940143;28;20047;-69
2021/10/21 05:13:41;;;;;;;59.42;38.28;;;;;;;11.20;100.00;101587.25;4940550;28;20102;-70
2021/10/21 05:16:27;;;;;;;67.63;37.33;;;;;;;11.18;100.00;101588.16;4940821;28;20217;-71
2021/10/21 05:19:14;;;;;;;54.10;35.58;;;;;;;11.33;100.00;101582.81;4940628;28;20114;-70
2021/10/21 05:22:00;;;;;;;47.08;31.73;;;;;;;11.32;100.00;101583.66;4939488;28;20062;-71
2021/10/21 05:24:46;;;;;;;39.45;28.48;;;;;;;11.31;100.00;101581.94;4939922;28;20032;-70
2021/10/21 05:27:33;;;;;;;38.55;28.17;;;;;;;11.40;100.00;101579.25;4926151;29;20051;-71
2021/10/21 05:30:19;;;;;;;36.03;26.90;;;;;;;11.77;100.00;101584.22;4926712;29;20429;-70
2021/10/21 05:33:04;;;;;;;38.53;27.20;;;;;;;11.97;100.00;101581.44;4939079;28;20027;-71
2021/10/21 05:35:50;;;;;;;36.03;26.05;;;;;;;12.04;100.00;101586.63;4939878;28;20091;-70
2021/10/21 05:38:36;;;;;;;38.20;25.85;;;;;;;12.15;100.00;101582.13;4939926;29;20047;-71
2021/10/21 05:41:22;;;;;;;35.80;25.10;;;;;;;12.15;100.00;101587.41;4926641;28;20444;-70
2021/10/21 05:44:08;;;;;;;33.53;24.92;;;;;;;12.34;100.00;101583.66;4924945;29;20032;-70
2021/10/21 05:46:54;;;;;;;32.28;23.38;;;;;;;12.16;100.00;101576.00;4926670;28;20047;-71
2021/10/21 05:49:39;;;;;;;34.97;24.65;;;;;;;12.39;100.00;101573.13;4925714;29;20028;-70
2021/10/21 05:52:25;;;;;;;34.15;23.63;;;;;;;12.32;100.00;101566.19;4940861;28;20357;-70
2021/10/21 05:55:12;;;;;;;32.08;23.27;;;;;;;12.55;100.00;101570.31;4940863;28;20035;-71
2021/10/21 05:57:57;;;;;;;33.30;22.98;;;;;;;12.68;100.00;101571.88;4926361;29;20357;-70
2021/10/21 06:00:43;;;;;;;31.08;20.60;;;;;;;12.75;100.00;101563.03;4939553;28;20032;-68
2021/10/21 06:03:32;;;;;;;30.30;20.73;;;;;;;12.63;100.00;101562.31;4939494;29;20126;-68
2021/10/21 06:06:18;;;;;;;26.98;20.42;;;;;;;12.64;100.00;101566.66;4939043;29;20042;-68
2021/10/21 06:09:04;;;;;;;28.65;19.48;;;;;;;12.79;100.00;101556.84;4939876;28;20056;-68
2021/10/21 06:11:51;;;;;;;26.23;19.92;;;;;;;12.89;100.00;101568.09;4939184;29;20054;-69
2021/10/21 06:14:37;;;;;;;24.23;18.95;;;;;;;12.96;100.00;101568.00;4939284;29;20472;-69
2021/10/21 06:17:24;;;;;;;23.55;18.63;;;;;;;13.33;100.00;101553.44;4939353;28;20031;-71
2021/10/21 06:20:14;;;;;;;25.42;18.60;;;;;;;13.26;100.00;101545.69;4939365;29;20489;-70
2021/10/21 06:22:59;;;;;;;26.08;18.02;;;;;;;13.70;100.00;101551.06;4926475;28;20453;-71
2021/10/21 06:25:46;;;;;;;25.17;19.45;;;;;;;13.51;100.00;101553.16;4938535;29;20035;-70
2021/10/21 06:28:31;;;;;;;23.88;17.75;;;;;;;13.65;100.00;101543.28;4924890;29;20046;-70
2021/10/21 06:31:19;;;;;;;26.80;18.05;;;;;;;13.84;100.00;101547.34;4938298;29;20035;-70
2021/10/21 06:34:04;;;;;;;23.83;17.88;;;;;;;13.77;100.00;101540.44;4925445;29;20028;-70
2021/10/21 06:36:51;;;;;;;24.58;18.30;;;;;;;13.64;100.00;101540.66;4939197;28;20035;-71
2021/10/21 06:39:37;;;;;;;23.90;17.33;;;;;;;14.06;100.00;101531.97;4937669;29;20038;-71
2021/10/21 06:42:24;;;;;;;24.90;17.45;;;;;;;14.13;100.00;101526.59;4937750;29;20031;-70
2021/10/21 06:45:13;;;;;;;22.95;17.20;;;;;;;14.06;100.00;101518.81;4938347;28;20449;-71
2021/10/21 06:48:00;;;;;;;22.27;16.80;;;;;;;14.31;100.00;101526.25;4939232;28;20042;-72
2021/10/21 06:50:46;;;;;;;21.95;17.67;;;;;;;14.66;100.00;101518.50;4938200;29;20189;-74
2021/10/21 06:53:32;;;;;;;22.60;16.70;;;;;;;14.82;100.00;101520.81;4925121;29;20043;-72
2021/10/21 06:56:18;;;;;;;24.88;15.95;;;;;;;14.62;100.00;101518.56;4939167;28;20106;-71
2021/10/21 06:59:04;;;;;;;20.77;15.43;;;;;;;14.96;100.00;101513.44;4939208;28;20031;-71
2021/10/21 07:01:49;;;;;;;20.40;15.43;;;;;;;14.65;100.00;101514.13;4939101;28;20038;-72
2021/10/21 07:04:35;;;;;;;32.97;25.73;;;;;;;15.03;100.00;101513.25;4938709;29;20051;-71
2021/10/21 07:07:21;;;;;;;21.27;15.00;;;;;;;15.26;100.00;101513.59;4938640;29;20031;-72
2021/10/21 07:10:08;;;;;;;19.67;14.23;;;;;;;15.25;100.00;101510.97;4937689;29;20048;-72
2021/10/21 07:12:54;;;;;;;16.30;14.18;;;;;;;15.69;100.00;101513.44;4938642;28;20035;-71
2021/10/21 07:15:40;;;;;;;20.42;15.43;;;;;;;15.70;100.00;101510.75;4937652;29;20031;-71
2021/10/21 07:18:26;;;;;;;29.73;16.60;;;;;;;15.29;100.00;101515.28;4939018;28;20467;-72
2021/10/21 07:21:17;;;;;;;25.38;15.40;;;;;;;15.77;100.00;101516.75;4938412;29;20331;-71
2021/10/21 07:24:03;;;;;;;21.25;15.73;;;;;;;16.36;100.00;101513.34;4938675;28;20027;-72
2021/10/21 07:26:49;;;;;;;21.05;15.40;;;;;;;16.70;100.00;101512.34;4938768;28;20043;-72
2021/10/21 07:29:35;;;;;;;23.30;15.35;;;;;;;16.11;100.00;101507.03;4938756;28;20111;-73
2021/10/21 07:32:21;;;;;;;21.25;15.55;;;;;;;16.32;100.00;101499.31;4937767;29;20028;-71
2021/10/21 07:35:07;;;;;;;20.13;14.90;;;;;;;16.54;100.00;101497.84;4938530;28;20107;-71
2021/10/21 07:37:53;;;;;;;24.83;15.52;;;;;;;16.51;100.00;101497.06;4938825;28;20295;-71
2021/10/21 07:40:39;;;;;;;24.35;16.20;;;;;;;16.40;100.00;101493.84;4925009;28;20035;-72
2021/10/21 07:43:28;;;;;;;22.70;15.55;;;;;;;16.67;100.00;101495.69;4937820;28;20040;-71
2021/10/21 07:46:14;;;;;;;24.67;16.58;;;;;;;17.24;100.00;101491.25;4923419;29;20365;-71
2021/10/21 07:48:59;;;;;;;30.05;15.00;;;;;;;17.27;100.00;101489.34;4938108;28;20020;-68
2021/10/21 07:51:48;;;;;;;20.23;14.20;;;;;;;17.23;100.00;101478.91;4937695;29;20054;-68
2021/10/21 07:54:34;;;;;;;24.85;16.00;;;;;;;17.54;100.00;101480.53;4924652;29;20031;-72
2021/10/21 07:57:21;;;;;;;20.33;15.80;;;;;;;17.89;100.00;101485.47;4941713;28;20456;-72
2021/10/21 08:00:11;;;;;;;19.02;13.57;;;;;;;17.60;100.00;101479.47;4942226;28;20456;-72
2021/10/21 08:02:57;;;;;;;21.50;14.90;;;;;;;18.08;100.00;101475.94;4941843;28;20441;-72
2021/10/21 08:05:42;;;;;;;17.63;13.60;;;;;;;18.22;100.00;101468.38;4941435;29;20655;-71
2021/10/21 08:08:30;;;;;;;19.17;14.63;;;;;;;18.39;100.00;101475.72;4942467;28;20082;-71
2021/10/21 08:11:16;;;;;;;16.98;13.70;;;;;;;18.50;100.00;101474.41;4942302;28;20054;-72
2021/10/21 08:14:02;;;;;;;21.75;13.90;;;;;;;18.42;100.00;101465.88;4940573;28;20089;-71
2021/10/21 08:16:48;;;;;;;18.35;14.27;;;;;;;18.26;100.00;101463.78;4927274;29;20027;-73
2021/10/21 08:19:34;;;;;;;19.05;14.50;;;;;;;18.20;100.00;101454.28;4927815;29;20110;-72
2021/10/21 08:22:20;;;;;;;18.02;13.85;;;;;;;18.66;100.00;101451.63;4940817;29;20058;-72
2021/10/21 08:25:06;;;;;;;20.67;15.18;;;;;;;18.89;100.00;101458.72;4940412;29;20125;-73
2021/10/21 08:27:52;;;;;;;18.08;13.65;;;;;;;19.30;100.00;101452.63;4940052;29;20050;-72
2021/10/21 08:30:41;;;;;;;18.85;14.48;;;;;;;18.73;100.00;101452.28;4940315;29;20035;-73
2021/10/21 08:33:26;;;;;;;17.85;13.63;;;;;;;18.87;100.00;101449.94;4941222;28;20180;-73
2021/10/21 08:36:20;;;;;;;15.32;12.95;;;;;;;19.48;100.00;101446.50;4940857;28;20054;-74
2021/10/21 08:39:07;;;;;;;16.27;12.93;;;;;;;19.14;100.00;101446.16;4940761;29;20413;-73
2021/10/21 08:41:53;;;;;;;20.70;13.77;;;;;;;19.81;100.00;101436.22;4940611;28;20429;-74
2021/10/21 08:44:39;;;;;;;17.15;12.98;;;;;;;19.76;100.00;101439.06;4940348;29;20047;-73
2021/10/21 08:47:27;;;;;;;16.95;13.05;;;;;;;19.66;100.00;101427.13;4940510;28;20038;-73
2021/10/21 08:50:14;;;;;;;17.75;12.88;;;;;;;19.78;100.00;101426.59;4940928;28;20035;-73
2021/10/21 08:53:05;;;;;;;14.82;12.98;;;;;;;19.86;100.00;101424.47;4939643;29;20070;-73
2021/10/21 08:55:54;;;;;;;14.23;12.73;;;;;;;19.62;100.00;101424.66;4939938;29;20067;-72
2021/10/21 08:58:39;;;;;;;17.73;14.82;;;;;;;19.74;100.00;101427.66;4940451;29;20508;-72
2021/10/21 09:01:37;;;;;;;18.85;14.98;;;;;;;19.38;100.00;101426.59;4926172;29;20032;-72
2021/10/21 09:04:37;;;;;;;17.75;14.68;;;;;;;19.07;100.00;101426.09;4940530;28;20028;-72
2021/10/21 09:10:30;;;;;;;16.58;13.32;;;;;;;19.00;100.00;101414.84;4940092;28;20071;-71
2021/10/21 09:13:41;;;;;;;14.73;12.75;;;;;;;19.32;100.00;101412.69;4926800;29;20126;-72
2021/10/21 09:16:27;;;;;;;16.08;13.73;;;;;;;19.33;100.00;101412.59;4925208;29;20461;-70
2021/10/21 09:19:13;;;;;;;17.88;13.98;;;;;;;19.53;100.00;101404.63;4939651;29;20035;-71
2021/10/21 09:21:59;;;;;;;21.15;14.68;;;;;;;19.91;100.00;101403.84;4939444;29;20042;-71
2021/10/21 09:24:45;;;;;;;18.25;15.13;;;;;;;19.89;100.00;101397.72;4926374;29;20092;-71
2021/10/21 09:27:36;;;;;;;22.85;15.85;;;;;;;19.31;100.00;101393.22;4940018;28;20457;-72
2021/10/21 09:30:27;;;;;;;27.70;15.65;;;;;;;19.50;100.00;101385.31;4940153;28;20036;-71
2021/10/21 09:33:13;;;;;;;19.80;15.43;;;;;;;19.66;100.00;101384.59;4939685;29;20028;-71
2021/10/21 09:36:00;;;;;;;23.02;16.20;;;;;;;19.72;100.00;101370.16;4939465;29;20035;-71
2021/10/21 09:38:51;;;;;;;20.70;16.20;;;;;;;19.65;100.00;101376.69;4939476;29;20115;-71
2021/10/21 09:41:37;;;;;;;29.58;15.80;;;;;;;19.91;100.00;101371.03;4940177;28;20024;-71
2021/10/21 09:44:24;;;;;;;20.33;14.63;;;;;;;20.19;100.00;101358.22;4938832;29;20065;-71
2021/10/21 09:47:15;;;;;;;19.33;15.10;;;;;;;20.23;100.00;101352.72;4939291;29;20070;-71
2021/10/21 09:50:16;;;;;;;17.40;14.05;;;;;;;19.58;100.00;101349.50;4926122;29;20031;-73
2021/10/21 09:53:09;;;;;;;19.17;13.73;;;;;;;20.11;100.00;101339.97;4939847;28;20027;-72
2021/10/21 09:56:08;;;;;;;17.50;14.77;;;;;;;20.84;100.00;101339.94;4939537;28;20358;-71
2021/10/21 09:59:05;;;;;;;15.13;13.50;;;;;;;20.50;100.00;101332.78;4939032;29;20039;-71
2021/10/21 10:01:53;;;;;;;16.83;13.38;;;;;;;20.41;100.00;101335.00;4939472;29;20105;-71
2021/10/21 10:04:41;;;;;;;15.57;12.82;;;;;;;21.07;100.00;101329.91;4939687;28;20032;-72
2021/10/21 10:07:28;;;;;;;19.27;14.00;;;;;;;20.71;100.00;101326.38;4925474;29;20036;-72
2021/10/21 10:10:14;;;;;;;14.70;12.55;;;;;;;21.04;100.00;101330.06;4939092;28;20062;-71
2021/10/21 10:13:00;;;;;;;15.88;12.90;;;;;;;21.50;95.62;101324.06;4938788;29;20365;-72
2021/10/21 10:15:50;;;;;;;14.50;11.77;;;;;;;21.58;96.04;101329.84;4939279;28;20342;-72
2021/10/21 10:18:42;;;;;;;16.20;12.82;;;;;;;21.11;98.47;101314.63;4924419;29;20464;-71
2021/10/21 10:21:31;;;;;;;16.63;12.88;;;;;;;20.81;100.00;101311.66;4938846;29;20051;-72
2021/10/21 10:24:18;;;;;;;14.32;12.05;;;;;;;21.11;99.51;101303.94;4938179;29;20027;-71
2021/10/21 10:27:29;;;;;;;16.25;12.30;;;;;;;21.68;96.23;101312.44;4938964;28;20033;-72
2021/10/21 10:30:41;;;;;;;14.02;11.65;;;;;;;21.80;93.30;101301.13;4925161;29;20401;-72
2021/10/21 10:33:43;;;;;;;15.50;12.10;;;;;;;22.01;92.97;101289.28;4939322;28;20062;-73
2021/10/21 10:36:32;;;;;;;14.05;11.40;;;;;;;22.07;90.69;101296.09;4925317;28;20031;-72
2021/10/21 10:39:40;;;;;;;13.00;11.68;;;;;;;22.39;89.92;101284.47;4924793;29;20028;-72
2021/10/21 10:42:29;;;;;;;15.85;12.15;;;;;;;22.45;86.96;101284.09;4937833;29;20050;-74
2021/10/21 10:45:15;;;;;;;13.70;11.70;;;;;;;22.22;83.89;101272.06;4925006;28;20078;-72
2021/10/21 10:48:01;;;;;;;14.27;11.43;;;;;;;21.83;88.39;101268.91;4938091;29;20461;-72
2021/10/21 10:50:52;;;;;;;14.93;11.23;;;;;;;22.71;84.63;101251.44;4938497;28;20035;-73
2021/10/21 10:53:42;;;;;;;15.13;11.98;;;;;;;23.14;81.46;101259.47;4938527;29;20115;-73
2021/10/21 10:56:37;;;;;;;12.70;11.38;;;;;;;22.64;78.90;101250.06;4938574;28;20040;-72
2021/10/21 10:59:29;;;;;;;11.55;10.35;;;;;;;23.16;76.03;101243.31;4925849;28;20091;-73
2021/10/21 11:02:29;;;;;;;19.67;16.70;;;;;;;22.88;80.42;101245.94;4937869;29;20036;-72
2021/10/21 11:05:18;;;;;;;19.75;16.10;;;;;;;23.58;75.79;101230.00;4925070;28;20046;-72
2021/10/21 11:08:04;;;;;;;13.77;12.20;;;;;;;23.62;73.80;101228.00;4937715;29;20087;-72
2021/10/21 11:10:54;;;;;;;11.57;10.23;;;;;;;23.80;71.15;101230.38;4938042;28;20122;-71
2021/10/21 11:13:41;;;;;;;12.15;10.75;;;;;;;22.95;75.80;101220.56;4938327;28;20130;-72
2021/10/21 11:16:44;;;;;;;12.48;10.65;;;;;;;22.94;76.97;101217.03;4937580;29;20036;-71
2021/10/21 11:19:41;;;;;;;12.63;10.50;;;;;;;23.58;73.14;101213.09;4938242;28;20031;-71
2021/10/21 11:22:34;;;;;;;14.05;10.77;;;;;;;23.85;70.18;101209.50;4924552;28;20027;-73
2021/10/21 11:25:28;;;;;;;11.90;9.70;;;;;;;23.93;68.69;101207.22;4937824;29;20031;-71
2021/10/21 11:28:13;;;;;;;11.57;9.45;;;;;;;24.39;63.73;101200.56;4923867;29;20440;-71
2021/10/21 11:31:01;;;;;;;12.00;9.88;;;;;;;24.07;63.52;101201.81;4936388;29;20063;-71
2021/10/21 11:33:48;;;;;;;15.05;10.10;;;;;;;24.31;63.00;101188.66;4937344;29;20108;-72
2021/10/21 11:36:46;;;;;;;10.75;9.65;;;;;;;23.98;63.04;101189.03;4937972;28;20055;-71
2021/10/21 11:39:36;;;;;;;10.30;9.18;;;;;;;24.32;62.32;101180.53;4937420;29;20024;-72
2021/10/21 11:42:27;;;;;;;11.63;9.43;;;;;;;24.71;60.56;101177.84;4937101;29;20478;-71
2021/10/21 11:45:13;;;;;;;13.95;11.05;;;;;;;24.51;60.33;101170.25;4937107;29;20047;-70
2021/10/21 11:48:02;;;;;;;26.65;23.20;;;;;;;24.75;58.94;101163.25;4937929;28;20051;-70
2021/10/21 11:50:50;;;;;;;11.38;9.32;;;;;;;24.40;57.83;101162.13;4936752;29;20461;-70
2021/10/21 11:53:37;;;;;;;10.32;9.23;;;;;;;24.67;57.43;101159.41;4923562;29;20360;-70
2021/10/21 11:56:24;;;;;;;10.85;9.70;;;;;;;24.35;58.64;101158.88;4937079;29;20368;-70
2021/10/21 11:59:10;;;;;;;10.85;8.95;;;;;;;23.87;59.12;101154.03;4936957;29;20059;-70
2021/10/21 12:02:18;;;;;;;10.70;9.02;;;;;;;24.05;58.53;101139.50;4937220;29;20137;-70
2021/10/21 12:05:06;;;;;;;12.15;9.45;;;;;;;23.68;58.21;101140.16;4923832;29;20369;-70
2021/10/21 12:07:53;;;;;;;13.73;8.75;;;;;;;23.48;59.86;101135.25;4936372;29;20404;-70
2021/10/21 12:10:45;;;;;;;11.57;9.10;;;;;;;24.09;60.55;101132.13;4936193;29;20130;-71
2021/10/21 12:13:36;;;;;;;11.32;9.15;;;;;;;23.59;61.23;101123.84;4936854;29;20043;-70
2021/10/21 12:16:22;;;;;;;12.68;9.48;;;;;;;23.33;60.47;101126.38;4936962;29;20028;-70
2021/10/21 12:19:11;;;;;;;12.18;9.18;;;;;;;23.89;60.04;101129.88;4922574;29;20463;-71
2021/10/21 12:22:05;;;;;;;10.95;9.13;;;;;;;24.16;59.35;101120.91;4937583;29;20028;-71
2021/10/21 12:24:51;;;;;;;10.38;8.32;;;;;;;23.66;57.75;101115.31;4923481;29;20043;-71
2021/10/21 12:27:37;;;;;;;11.02;9.18;;;;;;;23.97;58.08;101112.38;4924050;29;20361;-72
2021/10/21 12:30:23;;;;;;;10.35;8.90;;;;;;;23.70;59.16;101110.63;4936995;29;20038;-71
2021/10/21 12:33:18;;;;;;;11.52;9.18;;;;;;;23.55;58.16;101109.81;4936690;29;20020;-71
2021/10/21 12:36:04;;;;;;;12.75;8.70;;;;;;;23.61;57.48;101109.41;4936706;29;20452;-71
2021/10/21 12:38:53;;;;;;;10.90;9.02;;;;;;;23.62;58.37;101112.94;4936255;29;20107;-71